createdAt,value
2018-07-14T00:01:20.482Z,95.70
2018-07-14T00:03:48.792Z,95.70
2018-07-14T00:06:17.170Z,95.80
2018-07-14T00:08:45.492Z,95.90
2018-07-14T00:11:13.819Z,95.90
2018-07-14T00:13:42.161Z,96.00
2018-07-14T00:16:10.548Z,96.00
2018-07-14T00:18:38.878Z,96.00
2018-07-14T00:21:07.207Z,96.40
2018-07-14T00:23:35.570Z,96.40
2018-07-14T00:26:03.962Z,96.30
2018-07-14T00:28:33.650Z,96.30
2018-07-14T00:31:01.953Z,96.50
2018-07-14T00:33:31.035Z,96.40
2018-07-14T00:35:59.332Z,96.80
2018-07-14T00:38:28.325Z,96.60
2018-07-14T00:40:56.632Z,96.70
2018-07-14T00:43:24.917Z,96.80
2018-07-14T00:45:53.250Z,96.90
2018-07-14T00:48:21.697Z,96.80
2018-07-14T00:50:50.079Z,96.90
2018-07-14T00:53:18.424Z,97.00
2018-07-14T00:55:46.726Z,97.10
2018-07-14T00:58:15.097Z,96.90
2018-07-14T01:00:43.413Z,97.20
2018-07-14T01:03:11.780Z,97.20
2018-07-14T01:05:40.109Z,97.30
2018-07-14T01:08:08.441Z,97.20
2018-07-14T01:10:36.781Z,97.10
2018-07-14T01:13:05.115Z,97.10
2018-07-14T01:15:33.475Z,97.20
2018-07-14T01:18:01.823Z,97.20
2018-07-14T01:20:30.222Z,97.30
2018-07-14T01:22:58.582Z,97.30
2018-07-14T01:25:27.095Z,97.30
2018-07-14T01:27:55.498Z,97.30
2018-07-14T01:30:23.935Z,97.40
2018-07-14T01:32:52.193Z,97.50
2018-07-14T01:35:20.513Z,97.50
2018-07-14T01:37:48.880Z,97.50
2018-07-14T01:40:17.148Z,97.40
2018-07-14T01:42:45.424Z,97.50
2018-07-14T01:45:13.709Z,97.50
2018-07-14T01:47:41.985Z,97.60
2018-07-14T01:50:10.262Z,97.60
2018-07-14T01:52:38.554Z,97.60
2018-07-14T01:55:06.908Z,97.80
2018-07-14T01:57:35.244Z,97.80
2018-07-14T02:00:03.541Z,97.80
2018-07-14T02:02:31.871Z,97.80
2018-07-14T02:05:00.234Z,98.00
2018-07-14T02:07:28.557Z,98.00
2018-07-14T02:09:56.833Z,97.90
2018-07-14T02:12:25.154Z,98.00
2018-07-14T02:14:53.453Z,98.00
2018-07-14T02:17:21.731Z,98.00
2018-07-14T02:19:50.058Z,98.00
2018-07-14T02:22:18.372Z,97.90
2018-07-14T02:24:46.723Z,97.90
2018-07-14T02:27:15.028Z,97.80
2018-07-14T02:29:43.359Z,98.10
2018-07-14T02:32:11.646Z,98.00
2018-07-14T02:34:40.031Z,98.10
2018-07-14T02:37:08.432Z,98.00
2018-07-14T02:39:36.791Z,98.00
2018-07-14T02:42:05.178Z,98.00
2018-07-14T02:44:33.496Z,98.00
2018-07-14T02:47:01.895Z,98.10
2018-07-14T02:49:30.221Z,98.10
2018-07-14T02:51:58.556Z,98.10
2018-07-14T02:54:26.850Z,98.00
2018-07-14T02:56:55.216Z,98.00
2018-07-14T02:59:23.539Z,98.00
2018-07-14T03:01:51.892Z,98.00
2018-07-14T03:04:20.266Z,98.10
2018-07-14T03:06:48.578Z,98.10
2018-07-14T03:09:17.041Z,98.00
2018-07-14T03:11:45.332Z,98.10
2018-07-14T03:14:13.675Z,98.10
2018-07-14T03:16:41.974Z,98.10
2018-07-14T03:19:10.300Z,98.20
2018-07-14T03:21:38.658Z,98.10
2018-07-14T03:24:06.997Z,98.40
2018-07-14T03:26:35.387Z,98.00
2018-07-14T03:29:03.693Z,97.90
2018-07-14T03:31:32.088Z,97.80
2018-07-14T03:34:00.423Z,97.80
2018-07-14T03:36:28.814Z,97.60
2018-07-14T03:38:57.141Z,97.70
2018-07-14T03:41:25.558Z,97.70
2018-07-14T03:43:53.897Z,97.70
2018-07-14T03:46:22.237Z,97.70
2018-07-14T03:48:50.561Z,97.70
2018-07-14T03:51:18.915Z,97.60
2018-07-14T03:53:47.298Z,97.50
2018-07-14T03:56:15.683Z,97.20
2018-07-14T03:58:43.988Z,97.10
2018-07-14T04:01:12.337Z,97.10
2018-07-14T04:03:40.661Z,97.10
2018-07-14T04:06:09.019Z,97.00
2018-07-14T04:08:37.346Z,97.10
2018-07-14T04:11:05.742Z,97.10
2018-07-14T04:13:34.094Z,97.10
2018-07-14T04:16:02.393Z,97.10
2018-07-14T04:18:31.412Z,97.10
2018-07-14T04:20:59.692Z,97.00
2018-07-14T04:23:28.053Z,97.00
2018-07-14T04:25:56.382Z,96.90
2018-07-14T04:28:24.763Z,97.00
2018-07-14T04:30:53.104Z,96.90
2018-07-14T04:33:21.396Z,96.70
2018-07-14T04:35:49.705Z,96.70
2018-07-14T04:38:18.021Z,96.70
2018-07-14T04:40:46.405Z,96.70
2018-07-14T04:43:14.809Z,96.50
2018-07-14T04:45:43.168Z,96.60
2018-07-14T04:48:11.557Z,96.50
2018-07-14T04:50:39.980Z,96.60
2018-07-14T04:53:08.366Z,96.50
2018-07-14T04:55:43.206Z,96.60
2018-07-14T04:58:11.512Z,96.70
2018-07-14T05:00:39.841Z,96.60
2018-07-14T05:03:08.144Z,96.50
2018-07-14T05:05:36.437Z,96.40
2018-07-14T05:08:04.897Z,96.50
2018-07-14T05:10:33.251Z,96.50
2018-07-14T05:13:01.584Z,96.30
2018-07-14T05:15:29.909Z,96.30
2018-07-14T05:17:58.343Z,96.30
2018-07-14T05:20:26.668Z,96.30
2018-07-14T05:22:54.952Z,96.30
2018-07-14T05:25:23.276Z,96.20
2018-07-14T05:27:51.799Z,96.30
2018-07-14T05:30:20.155Z,96.10
2018-07-14T05:32:48.462Z,96.00
2018-07-14T05:35:16.757Z,96.00
2018-07-14T05:37:45.105Z,95.90
2018-07-14T05:40:13.417Z,95.90
2018-07-14T05:42:41.781Z,95.80
2018-07-14T05:45:10.079Z,95.40
2018-07-14T05:47:38.387Z,95.40
2018-07-14T05:50:06.862Z,95.20
2018-07-14T05:52:35.730Z,95.10
2018-07-14T05:55:04.045Z,95.20
2018-07-14T05:57:32.379Z,95.30
2018-07-14T06:00:00.671Z,95.10
2018-07-14T06:02:28.951Z,95.10
2018-07-14T06:04:57.336Z,94.80
2018-07-14T06:07:25.641Z,94.80
2018-07-14T06:09:53.915Z,94.70
2018-07-14T06:12:22.329Z,94.60
2018-07-14T06:14:50.683Z,94.40
2018-07-14T06:17:19.002Z,94.30
2018-07-14T06:19:48.708Z,94.10
2018-07-14T06:22:17.058Z,94.10
2018-07-14T06:24:45.469Z,94.30
2018-07-14T06:27:14.045Z,94.20
2018-07-14T06:29:42.387Z,94.00
2018-07-14T06:32:10.793Z,94.00
2018-07-14T06:34:39.041Z,93.80
2018-07-14T06:37:07.320Z,93.80
2018-07-14T06:39:35.640Z,93.70
2018-07-14T06:42:03.884Z,94.00
2018-07-14T06:44:32.135Z,93.90
2018-07-14T06:47:00.431Z,93.90
2018-07-14T06:49:28.739Z,93.50
2018-07-14T06:51:57.047Z,93.40
2018-07-14T06:54:39.386Z,93.50
2018-07-14T06:57:07.690Z,93.60
2018-07-14T06:59:35.972Z,93.60
2018-07-14T07:02:04.307Z,93.50
2018-07-14T07:04:36.285Z,93.20
2018-07-14T07:07:04.604Z,93.20
2018-07-14T07:09:32.907Z,93.30
2018-07-14T07:12:01.271Z,93.50
2018-07-14T07:14:29.584Z,93.40
2018-07-14T07:16:57.912Z,93.30
2018-07-14T07:19:26.258Z,93.10
2018-07-14T07:21:54.611Z,92.80
2018-07-14T07:24:22.969Z,92.80
2018-07-14T07:26:51.283Z,92.50
2018-07-14T07:29:19.621Z,93.00
2018-07-14T07:31:47.937Z,92.80
2018-07-14T07:36:44.389Z,92.80
2018-07-14T07:39:12.741Z,92.70
2018-07-14T07:41:41.063Z,92.50
2018-07-14T07:44:09.528Z,92.30
2018-07-14T07:46:37.889Z,92.30
2018-07-14T07:49:06.203Z,92.10
2018-07-14T07:51:34.544Z,92.30
2018-07-14T07:54:02.881Z,92.20
2018-07-14T07:56:31.263Z,91.90
2018-07-14T07:58:59.643Z,91.80
2018-07-14T08:01:27.936Z,91.70
2018-07-14T08:03:56.384Z,91.40
2018-07-14T08:06:24.820Z,91.60
2018-07-14T08:08:53.133Z,91.30
2018-07-14T08:11:21.486Z,91.40
2018-07-14T08:13:49.812Z,91.30
2018-07-14T08:16:18.150Z,91.40
2018-07-14T08:18:46.456Z,91.20
2018-07-14T08:21:14.818Z,90.80
2018-07-14T08:23:43.135Z,90.50
2018-07-14T08:26:11.590Z,90.40
2018-07-14T08:28:39.923Z,90.20
2018-07-14T08:31:08.244Z,90.10
2018-07-14T08:33:36.532Z,90.10
2018-07-14T08:36:04.926Z,90.10
2018-07-14T08:38:33.242Z,90.30
2018-07-14T08:41:01.957Z,90.40
2018-07-14T08:43:30.400Z,90.10
2018-07-14T08:45:58.740Z,90.20
2018-07-14T08:48:27.030Z,89.80
2018-07-14T08:50:55.385Z,90.00
2018-07-14T08:53:23.670Z,90.00
2018-07-14T08:55:52.000Z,89.20
2018-07-14T08:58:24.530Z,89.00
2018-07-14T09:00:52.858Z,89.30
2018-07-14T09:03:21.192Z,89.50
2018-07-14T09:05:49.482Z,88.80
2018-07-14T09:08:17.830Z,88.50
2018-07-14T09:10:46.193Z,88.40
2018-07-14T09:13:14.554Z,88.90
2018-07-14T09:15:42.842Z,88.90
2018-07-14T09:18:11.188Z,88.50
2018-07-14T09:20:54.547Z,87.50
2018-07-14T09:23:22.865Z,87.10
2018-07-14T09:25:51.244Z,87.30
2018-07-14T09:28:20.501Z,86.50
2018-07-14T09:30:48.858Z,87.00
2018-07-14T09:33:17.165Z,87.10
2018-07-14T09:35:45.469Z,87.60
2018-07-14T09:38:13.753Z,87.60
2018-07-14T09:40:42.097Z,87.60
2018-07-14T09:43:10.398Z,87.90
2018-07-14T09:45:38.726Z,87.50
2018-07-14T09:48:07.041Z,86.70
2018-07-14T09:50:35.349Z,86.40
2018-07-14T09:53:03.798Z,86.90
2018-07-14T09:55:32.154Z,86.40
2018-07-14T09:58:00.517Z,85.80
2018-07-14T10:00:32.861Z,85.00
2018-07-14T10:03:02.111Z,84.00
2018-07-14T10:05:30.534Z,84.20
2018-07-14T10:07:58.911Z,83.70
2018-07-14T10:10:27.256Z,83.10
2018-07-14T10:12:55.591Z,83.80
2018-07-14T10:15:23.947Z,84.20
2018-07-14T10:17:52.622Z,83.70
2018-07-14T10:20:21.098Z,83.50
2018-07-14T10:22:50.282Z,83.50
2018-07-14T10:25:18.794Z,84.10
2018-07-14T10:27:46.942Z,83.50
2018-07-14T10:30:15.228Z,83.30
2018-07-14T10:32:43.527Z,82.10
2018-07-14T10:35:11.956Z,82.20
2018-07-14T10:37:40.332Z,82.90
2018-07-14T10:40:08.641Z,83.10
2018-07-14T10:42:36.963Z,83.20
2018-07-14T10:45:06.288Z,82.90
2018-07-14T10:47:34.619Z,82.80
2018-07-14T10:50:02.942Z,82.70
2018-07-14T10:52:31.264Z,82.20
2018-07-14T10:55:00.206Z,81.60
2018-07-14T10:57:28.453Z,82.70
2018-07-14T10:59:57.344Z,83.20
2018-07-14T11:02:25.745Z,83.40
2018-07-14T11:04:54.053Z,82.80
2018-07-14T11:07:22.480Z,82.10
2018-07-14T11:09:50.821Z,83.00
2018-07-14T11:12:19.239Z,81.90
2018-07-14T11:14:47.575Z,81.90
2018-07-14T11:17:15.876Z,82.40
2018-07-14T11:19:44.195Z,81.20
2018-07-14T11:22:12.559Z,80.90
2018-07-14T11:24:40.884Z,81.20
2018-07-14T11:27:09.193Z,80.60
2018-07-14T11:29:37.475Z,80.40
2018-07-14T11:32:05.769Z,81.40
2018-07-14T11:34:34.120Z,81.50
2018-07-14T11:37:02.432Z,81.30
2018-07-14T11:39:30.785Z,79.80
2018-07-14T11:41:59.173Z,80.10
2018-07-14T11:44:27.535Z,78.70
2018-07-14T11:46:55.855Z,78.40
2018-07-14T11:49:24.178Z,78.50
2018-07-14T11:51:52.493Z,79.60
2018-07-14T11:54:20.835Z,79.20
2018-07-14T11:56:49.131Z,79.20
2018-07-14T11:59:18.221Z,78.70
2018-07-14T12:01:46.496Z,78.90
2018-07-14T12:04:14.893Z,78.40
2018-07-14T12:06:43.227Z,77.70
2018-07-14T12:09:11.528Z,76.00
2018-07-14T12:11:39.803Z,76.00
2018-07-14T12:14:08.104Z,76.00
2018-07-14T12:16:36.457Z,74.60
2018-07-14T12:19:04.954Z,73.10
2018-07-14T12:21:33.212Z,73.00
2018-07-14T12:24:01.595Z,72.90
2018-07-14T12:26:29.984Z,73.50
2018-07-14T12:28:58.288Z,73.90
2018-07-14T12:31:26.640Z,72.80
2018-07-14T12:33:55.050Z,73.20
2018-07-14T12:36:23.480Z,72.80
2018-07-14T12:38:51.799Z,73.30
2018-07-14T12:41:20.082Z,71.40
2018-07-14T12:43:48.401Z,72.20
2018-07-14T12:46:16.710Z,73.20
2018-07-14T12:48:45.053Z,71.30
2018-07-14T12:51:13.347Z,70.00
2018-07-14T12:53:41.694Z,70.60
2018-07-14T12:56:09.950Z,70.10
2018-07-14T12:58:38.272Z,69.30
2018-07-14T13:01:06.610Z,69.70
2018-07-14T13:03:34.975Z,69.20
2018-07-14T13:06:03.301Z,69.60
2018-07-14T13:08:31.560Z,70.10
2018-07-14T13:10:59.819Z,71.60
2018-07-14T13:13:28.117Z,73.60
2018-07-14T13:15:56.503Z,72.90
2018-07-14T13:18:24.957Z,71.50
2018-07-14T13:20:53.389Z,70.90
2018-07-14T13:23:21.681Z,69.70
2018-07-14T13:25:49.980Z,68.00
2018-07-14T13:28:18.283Z,66.30
2018-07-14T13:30:46.632Z,66.00
2018-07-14T13:33:14.977Z,67.70
2018-07-14T13:35:43.269Z,67.00
2018-07-14T13:38:11.571Z,67.10
2018-07-14T13:40:39.880Z,66.70
2018-07-14T13:43:08.204Z,67.90
2018-07-14T13:45:36.496Z,69.60
2018-07-14T13:48:04.825Z,70.30
2018-07-14T13:50:33.176Z,70.60
2018-07-14T13:53:01.490Z,67.90
2018-07-14T13:55:29.787Z,67.30
2018-07-14T13:57:58.153Z,68.10
2018-07-14T14:00:26.504Z,65.20
2018-07-14T14:02:54.810Z,65.60
2018-07-14T14:05:23.146Z,66.20
2018-07-14T14:07:51.480Z,66.40
2018-07-14T14:10:19.790Z,66.20
2018-07-14T14:12:48.152Z,66.10
2018-07-14T14:15:16.511Z,64.50
2018-07-14T14:17:44.816Z,64.20
2018-07-14T14:20:13.196Z,64.10
2018-07-14T14:22:41.619Z,65.00
2018-07-14T14:25:09.992Z,63.20
2018-07-14T14:27:38.345Z,62.40
2018-07-14T14:30:06.678Z,62.10
2018-07-14T14:32:34.987Z,62.20
2018-07-14T14:35:03.316Z,63.30
2018-07-14T14:37:31.665Z,62.80
2018-07-14T14:40:00.080Z,62.30
2018-07-14T14:42:28.470Z,61.90
2018-07-14T14:44:56.887Z,61.10
2018-07-14T14:47:25.361Z,61.20
2018-07-14T14:49:53.708Z,62.40
2018-07-14T14:52:22.081Z,61.70
2018-07-14T14:54:50.464Z,62.00
2018-07-14T14:57:18.791Z,60.80
2018-07-14T14:59:47.154Z,60.20
2018-07-14T15:02:15.494Z,60.30
2018-07-14T15:04:43.793Z,59.60
2018-07-14T15:07:12.079Z,59.70
2018-07-14T15:09:40.412Z,58.60
2018-07-14T15:12:08.743Z,59.20
2018-07-14T15:14:37.106Z,59.10
2018-07-14T15:17:05.450Z,60.00
2018-07-14T15:19:33.723Z,59.60
2018-07-14T15:22:02.041Z,60.60
2018-07-14T15:24:30.374Z,60.90
2018-07-14T15:26:58.814Z,62.00
2018-07-14T15:29:27.241Z,60.40
2018-07-14T15:31:55.704Z,59.90
2018-07-14T15:34:24.118Z,59.00
2018-07-14T15:36:52.407Z,59.50
2018-07-14T15:39:20.715Z,60.10
2018-07-14T15:41:49.942Z,59.40
2018-07-14T15:44:18.555Z,58.60
2018-07-14T15:46:46.889Z,58.50
2018-07-14T15:49:15.441Z,60.20
2018-07-14T15:51:43.771Z,60.20
2018-07-14T15:54:12.083Z,59.70
2018-07-14T15:56:40.474Z,59.80
2018-07-14T15:59:09.009Z,59.80
2018-07-14T16:01:37.396Z,59.50
2018-07-14T16:04:05.934Z,59.40
2018-07-14T16:06:34.354Z,58.80
2018-07-14T16:09:02.693Z,59.00
2018-07-14T16:11:31.120Z,58.80
2018-07-14T16:13:59.599Z,58.50
2018-07-14T16:16:27.945Z,58.20
2018-07-14T16:18:56.352Z,59.10
2018-07-14T16:21:24.738Z,57.60
2018-07-14T16:23:53.128Z,57.60
2018-07-14T16:26:21.424Z,57.30
2018-07-14T16:28:49.864Z,57.80
2018-07-14T16:31:18.203Z,57.50
2018-07-14T16:33:46.480Z,57.40
2018-07-14T16:36:14.892Z,57.60
2018-07-14T16:38:43.174Z,57.30
2018-07-14T16:41:11.602Z,57.10
2018-07-14T16:46:08.952Z,57.40
2018-07-14T16:48:37.998Z,57.00
2018-07-14T16:51:06.412Z,56.80
2018-07-14T16:53:34.792Z,57.30
2018-07-14T16:56:03.174Z,57.00
2018-07-14T16:58:31.588Z,56.80
2018-07-14T17:00:59.917Z,57.10
2018-07-14T17:03:28.194Z,56.90
2018-07-14T17:05:56.483Z,56.50
2018-07-14T17:08:24.881Z,56.50
2018-07-14T17:10:53.313Z,56.40
2018-07-14T17:13:21.663Z,56.40
2018-07-14T17:15:50.051Z,56.60
2018-07-14T17:18:18.362Z,56.60
2018-07-14T17:20:48.424Z,56.60
2018-07-14T17:23:16.682Z,56.90
2018-07-14T17:25:45.092Z,57.30
2018-07-14T17:28:13.542Z,57.60
2018-07-14T17:30:41.896Z,57.90
2018-07-14T17:33:10.185Z,58.30
2018-07-14T17:35:38.560Z,58.30
2018-07-14T17:38:06.810Z,58.30
2018-07-14T17:40:35.101Z,58.70
2018-07-14T17:43:03.435Z,58.30
2018-07-14T17:45:31.799Z,57.90
2018-07-14T17:48:00.119Z,57.90
2018-07-14T17:50:28.569Z,57.80
2018-07-14T17:52:56.990Z,57.70
2018-07-14T17:55:25.303Z,57.90
2018-07-14T17:57:53.584Z,57.60
2018-07-14T18:00:21.989Z,57.90
2018-07-14T18:02:50.453Z,58.10
2018-07-14T18:05:19.020Z,58.00
2018-07-14T18:07:47.971Z,57.90
2018-07-14T18:10:16.291Z,57.30
2018-07-14T18:12:44.645Z,57.50
2018-07-14T18:15:12.951Z,57.30
2018-07-14T18:17:41.235Z,58.10
2018-07-14T18:20:09.526Z,58.60
2018-07-14T18:22:37.823Z,58.60
2018-07-14T18:25:06.124Z,58.50
2018-07-14T18:27:34.493Z,58.40
2018-07-14T18:30:02.875Z,57.50
2018-07-14T18:32:31.181Z,57.70
2018-07-14T18:35:00.190Z,58.40
2018-07-14T18:37:28.720Z,57.90
2018-07-14T18:39:57.054Z,57.40
2018-07-14T18:42:25.378Z,56.60
2018-07-14T18:44:53.679Z,57.00
2018-07-14T18:47:22.012Z,56.30
2018-07-14T18:49:50.318Z,56.30
2018-07-14T18:52:18.770Z,56.50
2018-07-14T18:54:47.030Z,57.30
2018-07-14T18:57:15.371Z,57.90
2018-07-14T18:59:43.647Z,58.60
2018-07-14T19:02:12.017Z,59.10
2018-07-14T19:04:40.446Z,60.10
2018-07-14T19:07:08.856Z,61.40
2018-07-14T19:09:37.128Z,62.30
2018-07-14T19:12:05.454Z,62.90
2018-07-14T19:14:33.839Z,63.90
2018-07-14T19:17:02.211Z,64.50
2018-07-14T19:19:30.530Z,65.10
2018-07-14T19:21:58.920Z,66.40
2018-07-14T19:24:27.254Z,66.00
2018-07-14T19:26:55.824Z,66.30
2018-07-14T19:29:24.112Z,66.60
2018-07-14T19:31:52.475Z,67.10
2018-07-14T19:34:20.829Z,67.90
2018-07-14T19:36:49.617Z,67.80
2018-07-14T19:39:18.089Z,68.20
2018-07-14T19:41:46.570Z,68.40
2018-07-14T19:44:14.968Z,68.70
2018-07-14T19:46:43.289Z,69.00
2018-07-14T19:49:11.617Z,69.20
2018-07-14T19:51:40.044Z,69.60
2018-07-14T19:54:08.368Z,69.90
2018-07-14T19:56:36.723Z,70.20
2018-07-14T19:59:05.414Z,70.60
2018-07-14T20:01:33.709Z,71.20
2018-07-14T20:04:02.029Z,71.70
2018-07-14T20:06:30.510Z,72.10
2018-07-14T20:08:58.810Z,72.60
2018-07-14T20:11:27.470Z,73.00
2018-07-14T20:13:55.769Z,73.50
2018-07-14T20:16:24.324Z,73.60
2018-07-14T20:18:52.678Z,74.10
2018-07-14T20:21:21.024Z,74.50
2018-07-14T20:23:50.010Z,74.50
2018-07-14T20:26:18.304Z,75.00
2018-07-14T20:28:46.794Z,75.30
2018-07-14T20:31:15.099Z,75.50
2018-07-14T20:33:43.411Z,75.80
2018-07-14T20:36:11.788Z,76.40
2018-07-14T20:38:40.084Z,76.40
2018-07-14T20:41:08.396Z,76.70
2018-07-14T20:43:36.729Z,76.60
2018-07-14T20:46:05.411Z,76.80
2018-07-14T20:48:33.837Z,77.50
2018-07-14T20:51:02.112Z,77.90
2018-07-14T20:53:30.473Z,78.00
2018-07-14T20:55:58.863Z,78.20
2018-07-14T20:58:27.588Z,78.20
2018-07-14T21:00:55.876Z,78.40
2018-07-14T21:03:24.367Z,78.40
2018-07-14T21:05:52.684Z,78.70
2018-07-14T21:08:20.944Z,79.70
2018-07-14T21:10:49.350Z,79.00
2018-07-14T21:13:17.687Z,79.30
2018-07-14T21:15:46.024Z,79.70
2018-07-14T21:18:14.529Z,80.00
2018-07-14T21:20:42.863Z,80.20
2018-07-14T21:23:11.219Z,80.30
2018-07-14T21:25:39.540Z,80.40
2018-07-14T21:28:07.907Z,81.30
2018-07-14T21:30:36.241Z,81.30
2018-07-14T21:33:04.550Z,81.60
2018-07-14T21:35:32.958Z,80.60
2018-07-14T21:38:01.292Z,80.90
2018-07-14T21:40:29.675Z,81.50
2018-07-14T21:42:58.014Z,81.50
2018-07-14T21:45:26.376Z,81.80
2018-07-14T21:47:54.732Z,82.20
2018-07-14T21:50:23.121Z,82.30
2018-07-14T21:52:51.545Z,82.90
2018-07-14T21:55:19.905Z,83.00
2018-07-14T21:57:49.219Z,83.00
2018-07-14T22:00:32.321Z,82.90
2018-07-14T22:03:01.990Z,83.10
2018-07-14T22:05:30.306Z,83.10
2018-07-14T22:07:58.731Z,83.10
2018-07-14T22:10:27.119Z,83.50
2018-07-14T22:12:55.462Z,83.60
2018-07-14T22:15:24.276Z,83.80
2018-07-14T22:17:53.723Z,84.30
2018-07-14T22:20:22.002Z,84.30
2018-07-14T22:25:18.554Z,85.00
2018-07-14T22:27:47.079Z,85.00
2018-07-14T22:30:15.657Z,85.40
2018-07-14T22:32:44.049Z,85.70
2018-07-14T22:35:12.428Z,85.70
2018-07-14T22:37:40.808Z,86.20
2018-07-14T22:40:09.254Z,86.50
2018-07-14T22:42:37.552Z,86.20
2018-07-14T22:45:05.871Z,86.60
2018-07-14T22:47:34.277Z,87.00
2018-07-14T22:50:02.664Z,86.70
2018-07-14T22:52:31.007Z,87.10
2018-07-14T22:55:00.325Z,87.20
2018-07-14T22:57:28.637Z,87.40
2018-07-14T22:59:56.980Z,87.90
2018-07-14T23:02:25.314Z,87.70
2018-07-14T23:04:53.687Z,87.90
2018-07-14T23:07:22.056Z,88.00
2018-07-14T23:09:50.539Z,88.50
2018-07-14T23:12:19.573Z,88.60
2018-07-14T23:14:48.534Z,88.50
2018-07-14T23:17:16.874Z,88.60
2018-07-14T23:19:45.215Z,88.90
2018-07-14T23:22:13.503Z,88.80
2018-07-14T23:24:45.171Z,89.40
2018-07-14T23:27:13.553Z,88.60
2018-07-14T23:29:41.898Z,89.00
2018-07-14T23:32:10.628Z,89.10
2018-07-14T23:34:38.969Z,89.50
2018-07-14T23:39:35.334Z,89.60
2018-07-14T23:42:03.626Z,89.50
2018-07-14T23:44:31.942Z,89.50
2018-07-14T23:47:00.220Z,90.10
2018-07-14T23:49:28.558Z,90.00
2018-07-14T23:51:56.949Z,90.20
2018-07-14T23:54:25.612Z,90.30
2018-07-14T23:56:53.926Z,90.50
2018-07-14T23:59:22.246Z,90.40
